Time;durP1;ratioP1;P1;durP2;ratioP2;P2;SDS_P1;SDS_P2;PMS_P1;PMS_P2;Temp;Humidity;BMP_temperature;BMP_pressure;BME280_temperature;BME280_humidity;BME280_pressure;Samples;Min_cycle;Max_cycle;Signal;HPM_P1;HPM_P2
2023/12/18 00:01:26;;;;;;;2.40;1.63;;;;;;;13.19;33.24;98163.41;5036084;28;20013;-25
2023/12/18 00:03:52;;;;;;;5.93;1.80;;;;;;;13.11;33.14;98161.84;5036102;28;20108;-25
2023/12/18 00:06:17;;;;;;;3.17;1.42;;;;;;;13.01;33.48;98161.94;5035914;28;20100;-25
2023/12/18 00:08:43;;;;;;;3.38;1.48;;;;;;;13.07;33.05;98163.06;5035583;28;20029;-25
2023/12/18 00:11:08;;;;;;;2.38;1.42;;;;;;;13.06;33.40;98150.63;5042847;28;20025;-25
2023/12/18 00:13:34;;;;;;;2.72;1.50;;;;;;;13.08;33.47;98149.06;5035836;28;20056;-25
2023/12/18 00:15:59;;;;;;;2.17;1.38;;;;;;;13.06;33.13;98147.91;5036562;28;20112;-25
2023/12/18 00:18:25;;;;;;;3.08;1.55;;;;;;;13.02;33.18;98149.88;5034994;28;20031;-25
2023/12/18 00:20:52;;;;;;;2.78;1.60;;;;;;;13.04;32.89;98148.31;5042105;28;20062;-25
2023/12/18 00:23:17;;;;;;;2.92;1.42;;;;;;;12.88;33.23;98139.84;5037397;28;20024;-25
2023/12/18 00:25:43;;;;;;;3.25;1.70;;;;;;;12.92;33.25;98140.59;5045526;28;20021;-25
2023/12/18 00:28:08;;;;;;;2.38;1.20;;;;;;;13.00;33.45;98144.81;5037525;28;20025;-25
2023/12/18 00:30:34;;;;;;;3.42;1.30;;;;;;;13.02;33.42;98158.81;5035051;28;20108;-25
2023/12/18 00:33:00;;;;;;;2.03;1.30;;;;;;;13.00;32.75;98138.59;5035330;28;20018;-25
2023/12/18 00:35:25;;;;;;;2.00;1.23;;;;;;;12.94;33.01;98141.00;5035404;28;20056;-25
2023/12/18 00:37:50;;;;;;;2.38;1.20;;;;;;;12.86;32.77;98123.91;5042359;28;20025;-25
2023/12/18 00:40:16;;;;;;;2.30;1.20;;;;;;;12.88;33.07;98127.00;5042930;28;20025;-25
2023/12/18 00:42:42;;;;;;;3.35;1.50;;;;;;;12.84;32.96;98128.22;5035348;28;20075;-25
2023/12/18 00:45:07;;;;;;;2.35;1.27;;;;;;;13.00;32.60;98133.16;5035271;28;20041;-25
2023/12/18 00:47:33;;;;;;;2.20;1.10;;;;;;;13.01;32.99;98143.66;5035559;28;20095;-25
2023/12/18 00:49:58;;;;;;;2.85;1.20;;;;;;;13.08;33.04;98142.84;5046867;28;20029;-25
2023/12/18 00:52:24;;;;;;;2.90;1.50;;;;;;;12.89;33.12;98139.44;5037559;28;20025;-25
2023/12/18 00:54:49;;;;;;;3.00;1.20;;;;;;;13.05;32.55;98141.69;5042316;28;20021;-25
2023/12/18 00:57:15;;;;;;;1.75;1.27;;;;;;;13.20;31.98;98132.25;5035090;28;20021;-25
2023/12/18 00:59:41;;;;;;;2.97;1.00;;;;;;;13.15;32.33;98142.78;5035173;28;20033;-25
2023/12/18 01:02:06;;;;;;;3.50;1.00;;;;;;;13.06;32.54;98137.00;5035037;28;20074;-25
2023/12/18 01:04:32;;;;;;;1.80;1.10;;;;;;;13.09;32.40;98150.59;5027619;28;20021;-25
2023/12/18 01:06:57;;;;;;;1.85;1.05;;;;;;;12.89;32.09;98144.91;5044728;28;20017;-25
2023/12/18 01:09:22;;;;;;;1.70;1.00;;;;;;;13.02;32.15;98137.03;5040056;28;20139;-25
2023/12/18 01:11:49;;;;;;;1.75;1.00;;;;;;;13.09;32.49;98142.44;5034689;28;20370;-25
2023/12/18 01:14:14;;;;;;;1.63;0.90;;;;;;;13.11;32.19;98142.00;5034263;28;20025;-25
2023/12/18 01:16:40;;;;;;;1.75;1.33;;;;;;;13.03;32.04;98149.47;5034905;28;20375;-25
2023/12/18 01:19:05;;;;;;;1.92;1.25;;;;;;;13.13;31.65;98151.34;5035606;28;20079;-25
2023/12/18 01:21:31;;;;;;;3.58;1.55;;;;;;;13.08;31.57;98149.06;5040331;28;20021;-25
2023/12/18 01:23:56;;;;;;;2.80;1.48;;;;;;;12.92;31.70;98135.16;5034050;28;20031;-25
2023/12/18 01:26:22;;;;;;;2.42;1.30;;;;;;;13.15;31.74;98140.06;5042012;28;20021;-25
2023/12/18 01:28:47;;;;;;;1.35;1.10;;;;;;;13.14;31.86;98149.38;5033892;28;20030;-25
2023/12/18 01:31:23;;;;;;;4.03;1.20;;;;;;;13.10;31.70;98149.44;5034662;28;20455;-25
2023/12/18 01:33:49;;;;;;;2.08;1.20;;;;;;;13.20;31.63;98145.09;5040804;28;20036;-25
2023/12/18 01:36:15;;;;;;;3.50;1.50;;;;;;;13.09;31.78;98147.88;5042002;28;20025;-25
2023/12/18 01:38:40;;;;;;;3.35;1.27;;;;;;;13.03;31.52;98144.03;5034848;28;20025;-25
2023/12/18 01:41:05;;;;;;;2.03;1.10;;;;;;;13.09;30.99;98134.28;5034567;28;20049;-25
2023/12/18 01:43:31;;;;;;;2.13;1.25;;;;;;;13.02;30.84;98128.84;5034988;28;20025;-25
2023/12/18 01:46:01;;;;;;;3.13;1.45;;;;;;;12.85;31.50;98127.06;5039210;28;20025;-25
2023/12/18 01:48:28;;;;;;;3.42;1.40;;;;;;;12.99;31.36;98126.94;5036259;28;20045;-26
2023/12/18 01:50:54;;;;;;;1.95;1.02;;;;;;;12.99;31.33;98132.38;5034598;28;20026;-25
2023/12/18 01:53:27;;;;;;;2.03;0.98;;;;;;;13.08;30.75;98124.53;5034169;28;20360;-26
2023/12/18 01:55:54;;;;;;;1.77;1.15;;;;;;;12.98;30.83;98116.47;5034358;28;20025;-25
2023/12/18 01:58:19;;;;;;;1.80;0.93;;;;;;;12.80;32.06;98116.56;5034242;28;20127;-25
2023/12/18 02:00:45;;;;;;;1.67;1.10;;;;;;;12.96;31.13;98111.41;5034594;28;20045;-25
2023/12/18 02:03:12;;;;;;;3.42;1.00;;;;;;;12.93;31.36;98107.53;5041079;28;20021;-25
2023/12/18 02:05:39;;;;;;;1.77;1.08;;;;;;;12.91;30.69;98106.38;5041012;28;20374;-25
2023/12/18 02:08:06;;;;;;;1.70;1.00;;;;;;;12.85;31.09;98105.28;5041732;28;20026;-25
2023/12/18 02:10:32;;;;;;;1.90;1.10;;;;;;;12.98;31.11;98100.91;5034093;28;20057;-25
2023/12/18 02:12:57;;;;;;;1.83;0.80;;;;;;;13.10;30.65;98102.34;5034281;28;20057;-25
2023/12/18 02:15:23;;;;;;;1.67;1.00;;;;;;;13.07;30.69;98094.97;5037807;28;20028;-25
2023/12/18 02:17:48;;;;;;;2.90;1.38;;;;;;;13.01;30.79;98091.13;5036179;28;20108;-25
2023/12/18 02:20:14;;;;;;;1.98;1.13;;;;;;;12.90;30.36;98091.22;5041421;28;20025;-25
2023/12/18 02:22:45;;;;;;;2.83;0.82;;;;;;;12.93;30.60;98091.19;5033661;28;20017;-25
2023/12/18 02:25:11;;;;;;;2.60;1.02;;;;;;;12.83;30.31;98088.56;5036198;28;20056;-25
2023/12/18 02:27:38;;;;;;;2.00;0.90;;;;;;;12.99;30.49;98088.81;5039133;28;20107;-25
2023/12/18 02:30:04;;;;;;;2.58;1.15;;;;;;;12.97;30.52;98088.44;5033524;28;20033;-25
2023/12/18 02:32:29;;;;;;;1.52;0.93;;;;;;;12.85;30.70;98078.03;5040791;28;20107;-25
2023/12/18 02:34:55;;;;;;;2.53;1.10;;;;;;;12.83;30.89;98078.44;5015929;28;20056;-25
2023/12/18 02:37:22;;;;;;;3.42;1.13;;;;;;;12.99;30.59;98071.69;5033703;28;20021;-25
2023/12/18 02:39:48;;;;;;;2.47;1.00;;;;;;;12.86;30.66;98072.16;5034142;28;20026;-25
2023/12/18 02:42:13;;;;;;;1.40;1.00;;;;;;;12.90;30.28;98072.16;5034394;28;20025;-25
2023/12/18 02:44:39;;;;;;;1.73;1.10;;;;;;;12.71;30.28;98069.97;5022304;28;20044;-25
2023/12/18 02:47:04;;;;;;;1.60;0.95;;;;;;;12.92;30.13;98061.63;5041535;28;20018;-25
2023/12/18 02:49:29;;;;;;;3.22;1.13;;;;;;;13.04;29.81;98063.88;5027925;28;20025;-25
2023/12/18 02:51:55;;;;;;;1.42;0.80;;;;;;;12.75;29.89;98060.59;5037219;28;20018;-25
2023/12/18 02:54:20;;;;;;;3.30;1.10;;;;;;;13.00;30.00;98056.91;5036817;28;20033;-25
2023/12/18 02:56:46;;;;;;;4.18;1.00;;;;;;;13.04;29.95;98058.41;5038013;28;20021;-25
2023/12/18 02:59:12;;;;;;;2.80;1.13;;;;;;;12.92;29.60;98051.53;5044006;28;20024;-25
2023/12/18 03:01:37;;;;;;;2.17;1.15;;;;;;;13.00;29.86;98054.94;5044560;28;20462;-25
2023/12/18 03:04:03;;;;;;;3.33;1.17;;;;;;;12.92;29.76;98056.97;5037017;28;20374;-25
2023/12/18 03:06:29;;;;;;;2.97;1.13;;;;;;;13.01;29.82;98051.03;5037086;28;20025;-25
2023/12/18 03:08:54;;;;;;;1.98;0.90;;;;;;;12.91;29.89;98044.53;5044577;28;20031;-25
2023/12/18 03:11:19;;;;;;;2.13;1.00;;;;;;;13.05;29.69;98048.31;5037051;28;20109;-25
2023/12/18 03:13:45;;;;;;;2.72;1.05;;;;;;;12.81;29.38;98039.94;5036470;28;20091;-25
2023/12/18 03:16:11;;;;;;;1.67;0.98;;;;;;;12.81;30.00;98034.50;5044253;28;20026;-25
2023/12/18 03:18:36;;;;;;;1.65;0.90;;;;;;;12.95;29.94;98033.59;5043431;28;20075;-25
2023/12/18 03:21:01;;;;;;;1.75;1.00;;;;;;;12.91;29.95;98030.13;5036805;28;20021;-25
2023/12/18 03:23:27;;;;;;;1.83;1.00;;;;;;;12.87;29.68;98024.72;5036764;28;20108;-25
2023/12/18 03:25:52;;;;;;;1.83;0.90;;;;;;;12.81;29.79;98031.00;5044228;28;20025;-25
2023/12/18 03:28:18;;;;;;;1.77;1.13;;;;;;;12.83;29.40;98026.72;5043687;28;20116;-25
2023/12/18 03:30:44;;;;;;;2.75;1.00;;;;;;;12.82;29.42;98029.84;5036307;28;20025;-25
2023/12/18 03:33:10;;;;;;;4.25;1.20;;;;;;;12.94;29.83;98021.16;5037092;28;20029;-25
2023/12/18 03:35:35;;;;;;;2.80;2.08;;;;;;;12.92;29.54;98020.78;5036308;28;20467;-25
2023/12/18 03:38:01;;;;;;;1.70;0.90;;;;;;;12.84;29.77;98027.50;5036022;28;20527;-25
2023/12/18 03:40:26;;;;;;;2.15;0.90;;;;;;;12.89;29.46;98025.09;5038324;28;20053;-25
2023/12/18 03:42:51;;;;;;;3.22;1.00;;;;;;;12.86;28.99;98025.88;5041942;28;20079;-25
2023/12/18 03:45:17;;;;;;;3.10;1.35;;;;;;;12.92;29.62;98023.50;5043632;28;20525;-25
2023/12/18 03:47:42;;;;;;;2.92;1.00;;;;;;;12.99;29.39;98028.09;5036167;28;20127;-25
2023/12/18 03:50:08;;;;;;;2.28;0.95;;;;;;;12.98;28.88;98032.03;5043617;28;20459;-25
2023/12/18 03:52:33;;;;;;;2.22;1.10;;;;;;;13.00;29.54;98029.66;5036753;28;20025;-25
2023/12/18 03:54:59;;;;;;;1.73;0.90;;;;;;;12.99;29.20;98034.34;5034273;28;20013;-25
2023/12/18 03:57:25;;;;;;;5.07;0.95;;;;;;;13.13;29.20;98034.19;5042870;28;20021;-25
2023/12/18 03:59:50;;;;;;;2.10;0.77;;;;;;;12.99;29.00;98026.16;5037954;28;20013;-25
2023/12/18 04:02:15;;;;;;;2.35;1.00;;;;;;;13.10;29.34;98028.81;5040793;28;20025;-25
2023/12/18 04:04:41;;;;;;;1.63;1.00;;;;;;;13.04;29.21;98022.25;5036833;28;20412;-25
2023/12/18 04:07:07;;;;;;;1.67;0.90;;;;;;;13.10;28.86;98024.13;5039452;28;20074;-25
2023/12/18 04:09:32;;;;;;;1.48;0.90;;;;;;;12.91;29.16;98016.53;5038857;28;20062;-25
2023/12/18 04:11:58;;;;;;;1.83;0.95;;;;;;;13.00;29.17;98018.75;5042726;28;20039;-25
2023/12/18 04:14:23;;;;;;;2.65;1.10;;;;;;;12.89;29.22;98018.88;5042595;28;20025;-25
2023/12/18 04:16:48;;;;;;;2.45;1.13;;;;;;;13.02;28.67;98014.47;5035809;28;20057;-25
2023/12/18 04:19:14;;;;;;;3.80;1.00;;;;;;;13.05;28.62;98010.94;5035186;28;20025;-25
2023/12/18 04:21:39;;;;;;;1.10;0.88;;;;;;;12.90;28.67;98014.97;5035863;28;20037;-25
2023/12/18 04:24:05;;;;;;;1.00;0.75;;;;;;;12.88;28.55;98003.69;5036407;28;20029;-25
2023/12/18 04:26:30;;;;;;;1.65;0.70;;;;;;;13.04;28.39;98009.41;5046763;28;20108;-25
2023/12/18 04:28:56;;;;;;;1.60;0.90;;;;;;;12.90;28.10;98004.84;5038122;28;20104;-25
2023/12/18 04:31:21;;;;;;;1.15;1.00;;;;;;;12.87;28.65;98007.59;5035352;28;20020;-25
2023/12/18 04:33:47;;;;;;;2.38;1.00;;;;;;;12.76;28.72;98015.88;5034768;28;20382;-25
2023/12/18 04:36:13;;;;;;;2.22;1.08;;;;;;;12.75;28.68;98008.09;5035030;28;20076;-25
2023/12/18 04:38:39;;;;;;;1.20;0.80;;;;;;;12.96;28.74;98007.94;5017598;28;20608;-25
2023/12/18 04:41:05;;;;;;;1.38;0.90;;;;;;;12.93;28.95;98011.44;5041478;28;20239;-25
2023/12/18 04:43:30;;;;;;;2.00;1.00;;;;;;;12.84;28.77;98011.16;5025407;28;20031;-25
2023/12/18 04:45:58;;;;;;;1.88;0.90;;;;;;;12.85;28.67;98002.59;5017543;28;20034;-25
2023/12/18 04:48:24;;;;;;;1.48;0.77;;;;;;;12.85;28.49;98002.59;5036091;28;20049;-25
2023/12/18 04:50:49;;;;;;;2.05;1.10;;;;;;;12.92;28.64;98007.19;5042141;28;20017;-25
2023/12/18 04:53:15;;;;;;;2.05;1.08;;;;;;;12.80;29.17;98013.13;5041436;28;20021;-26
2023/12/18 04:55:40;;;;;;;1.15;0.80;;;;;;;12.78;29.04;98008.06;5036882;28;20437;-25
2023/12/18 04:58:06;;;;;;;2.35;1.25;;;;;;;12.71;28.95;98010.09;5040794;28;20029;-25
2023/12/18 05:00:31;;;;;;;1.73;0.80;;;;;;;12.92;28.99;98009.91;5034994;28;20512;-25
2023/12/18 05:02:56;;;;;;;1.17;0.70;;;;;;;12.77;28.68;98011.97;5035207;28;20023;-25
2023/12/18 05:05:22;;;;;;;1.13;0.65;;;;;;;12.91;28.78;98011.06;5034358;28;20025;-25
2023/12/18 05:07:47;;;;;;;1.13;0.70;;;;;;;12.70;28.90;98008.53;5043013;28;20414;-24
2023/12/18 05:10:13;;;;;;;0.80;0.68;;;;;;;12.88;29.11;98007.19;5041227;28;20371;-25
2023/12/18 05:12:38;;;;;;;1.40;0.77;;;;;;;12.80;28.52;98007.69;5041369;28;20025;-25
2023/12/18 05:15:05;;;;;;;0.98;0.60;;;;;;;12.94;28.52;98015.72;5034869;28;20028;-25
2023/12/18 05:17:30;;;;;;;1.42;0.63;;;;;;;12.88;28.92;98009.16;5034387;28;20040;-25
2023/12/18 05:19:55;;;;;;;1.13;0.73;;;;;;;12.80;28.52;98010.41;5024103;28;20025;-25
2023/12/18 05:22:21;;;;;;;1.15;0.68;;;;;;;12.88;28.29;98003.69;5037556;28;20021;-25
2023/12/18 05:24:46;;;;;;;0.85;0.60;;;;;;;12.86;28.08;98006.06;5037947;28;20029;-25
2023/12/18 05:27:12;;;;;;;1.10;0.75;;;;;;;12.93;27.61;98014.94;5034693;28;20032;-25
2023/12/18 05:29:37;;;;;;;1.58;0.73;;;;;;;12.85;27.94;98016.19;5034588;28;20025;-25
2023/12/18 05:32:03;;;;;;;0.98;0.60;;;;;;;12.93;28.17;98009.50;5031426;28;20029;-25
2023/12/18 05:34:28;;;;;;;1.58;0.93;;;;;;;12.88;28.01;98015.38;5034055;28;20030;-25
2023/12/18 05:36:54;;;;;;;0.98;0.70;;;;;;;12.79;28.46;98015.06;5034064;28;20414;-25
2023/12/18 05:39:19;;;;;;;1.35;0.82;;;;;;;12.90;28.43;98004.84;5041817;28;20425;-25
2023/12/18 05:41:45;;;;;;;1.63;0.60;;;;;;;12.88;28.35;98012.66;5037761;28;20056;-25
2023/12/18 05:44:10;;;;;;;2.25;0.80;;;;;;;12.91;28.13;98009.13;5037687;28;20018;-25
2023/12/18 05:46:36;;;;;;;1.15;0.82;;;;;;;12.95;28.40;98003.66;5035285;28;20028;-25
2023/12/18 05:49:01;;;;;;;1.33;0.77;;;;;;;12.91;28.86;98006.41;5039972;28;20086;-25
2023/12/18 05:51:27;;;;;;;2.05;0.82;;;;;;;12.75;28.71;98010.81;5036990;28;20013;-25
2023/12/18 05:53:52;;;;;;;1.42;0.90;;;;;;;12.86;28.61;98008.78;5040571;28;20463;-25
2023/12/18 05:56:17;;;;;;;1.20;0.70;;;;;;;12.91;28.51;98005.63;5040945;28;20025;-25
2023/12/18 05:58:43;;;;;;;2.15;0.80;;;;;;;12.85;28.22;98005.31;5034428;28;20034;-27
2023/12/18 06:01:09;;;;;;;1.58;0.80;;;;;;;12.76;28.60;98004.19;5034304;28;20021;-26
2023/12/18 06:03:34;;;;;;;0.88;0.70;;;;;;;12.98;28.27;98000.13;5034631;28;20021;-26
2023/12/18 06:06:00;;;;;;;1.40;0.60;;;;;;;12.84;28.65;98000.25;5041043;28;20021;-26
2023/12/18 06:08:25;;;;;;;1.67;0.70;;;;;;;12.90;28.21;98001.34;5046995;28;20028;-26
2023/12/18 06:10:50;;;;;;;1.48;0.73;;;;;;;12.79;28.20;98003.41;5036122;28;20049;-26
2023/12/18 06:13:16;;;;;;;1.05;0.63;;;;;;;12.73;28.68;97994.13;5033555;28;20045;-26
2023/12/18 06:15:41;;;;;;;1.25;0.90;;;;;;;12.81;28.50;98001.06;5033691;28;20029;-26
2023/12/18 06:18:07;;;;;;;0.77;0.63;;;;;;;12.76;28.95;97994.09;5036774;28;20028;-26
2023/12/18 06:20:32;;;;;;;1.17;0.70;;;;;;;12.75;28.67;97992.53;5042748;28;20398;-26
2023/12/18 06:22:58;;;;;;;0.90;0.70;;;;;;;12.79;28.65;97993.28;5044904;28;20048;-26
2023/12/18 06:25:24;;;;;;;1.60;0.77;;;;;;;12.70;28.72;97995.72;5037301;28;20517;-26
2023/12/18 06:27:49;;;;;;;1.73;0.75;;;;;;;12.85;28.72;97997.13;5038100;28;20430;-26
2023/12/18 06:30:15;;;;;;;2.65;0.60;;;;;;;12.86;28.58;97995.94;5039957;28;20032;-26
2023/12/18 06:32:41;;;;;;;0.68;0.50;;;;;;;12.73;28.86;97997.63;5050180;28;20075;-26
2023/12/18 06:35:07;;;;;;;1.10;0.50;;;;;;;12.72;28.33;97996.09;5044496;28;20029;-26
2023/12/18 06:37:33;;;;;;;1.10;0.70;;;;;;;12.87;28.81;97983.09;5037557;28;20429;-26
2023/12/18 06:39:58;;;;;;;1.38;0.75;;;;;;;12.72;28.60;97979.75;5036807;28;20025;-26
2023/12/18 06:42:23;;;;;;;1.13;0.95;;;;;;;12.78;28.64;97988.25;5038131;28;20378;-26
2023/12/18 06:44:49;;;;;;;2.45;0.80;;;;;;;12.70;29.17;97987.53;5041629;28;20132;-26
2023/12/18 06:47:14;;;;;;;2.38;0.90;;;;;;;12.86;28.81;97987.00;5040262;28;20533;-26
2023/12/18 06:49:40;;;;;;;2.08;0.80;;;;;;;12.79;29.02;97982.41;5052071;28;20422;-26
2023/12/18 06:52:05;;;;;;;1.48;0.85;;;;;;;12.86;28.99;97985.03;5037421;28;20017;-26
2023/12/18 06:54:32;;;;;;;1.85;0.95;;;;;;;12.75;29.24;97981.66;5037371;28;20140;-26
2023/12/18 06:57:00;;;;;;;3.47;0.90;;;;;;;12.80;28.94;97988.63;5037239;28;20056;-26
2023/12/18 06:59:25;;;;;;;2.80;0.88;;;;;;;12.68;29.15;97989.88;5036535;28;20521;-26
2023/12/18 07:01:51;;;;;;;3.92;1.20;;;;;;;12.82;29.08;97986.28;5044653;28;20033;-26
2023/12/18 07:04:17;;;;;;;3.33;1.02;;;;;;;12.92;28.84;97985.41;5041713;28;20382;-26
2023/12/18 07:06:43;;;;;;;2.05;0.90;;;;;;;12.94;28.66;97993.94;5039854;28;20095;-26
2023/12/18 07:09:08;;;;;;;1.85;1.10;;;;;;;12.86;28.53;97995.16;5044310;28;20463;-26
2023/12/18 07:11:33;;;;;;;2.28;1.10;;;;;;;12.84;29.39;97981.19;5019247;28;20364;-26
2023/12/18 07:13:59;;;;;;;2.30;1.10;;;;;;;12.93;28.70;97990.44;5037754;28;20076;-26
2023/12/18 07:16:24;;;;;;;2.38;1.20;;;;;;;12.78;29.07;97991.75;5042482;28;20021;-26
2023/12/18 07:18:50;;;;;;;2.90;1.40;;;;;;;12.82;29.26;97986.28;5044219;28;20446;-26
2023/12/18 07:21:15;;;;;;;4.97;1.60;;;;;;;12.86;29.55;97995.16;5037199;28;20044;-26
2023/12/18 07:23:42;;;;;;;2.42;1.15;;;;;;;12.94;29.05;97983.03;5036744;28;20100;-26
2023/12/18 07:26:12;;;;;;;2.75;1.10;;;;;;;12.85;28.82;97985.47;5037834;28;20056;-26
2023/12/18 07:28:39;;;;;;;2.55;1.05;;;;;;;12.84;28.99;98000.25;5043055;28;20017;-26
2023/12/18 07:31:04;;;;;;;2.88;1.10;;;;;;;12.92;28.72;97993.56;5043640;28;20025;-26
2023/12/18 07:33:30;;;;;;;2.75;1.10;;;;;;;12.82;29.47;97997.16;5036549;28;20033;-26
2023/12/18 07:35:55;;;;;;;2.03;0.98;;;;;;;12.81;29.64;97996.38;5021342;28;20135;-26
2023/12/18 07:38:21;;;;;;;1.50;0.95;;;;;;;12.92;29.23;97991.63;5036649;28;20036;-26
2023/12/18 07:40:46;;;;;;;1.77;0.80;;;;;;;12.88;29.36;97987.38;5040059;28;20020;-26
2023/12/18 07:43:12;;;;;;;3.13;1.67;;;;;;;12.94;29.74;97988.50;5039397;28;20061;-26
2023/12/18 07:45:37;;;;;;;3.63;2.00;;;;;;;12.82;30.47;98002.59;5043674;28;20017;-26
2023/12/18 07:48:03;;;;;;;4.07;2.40;;;;;;;12.82;30.65;97986.28;5036087;28;20120;-26
2023/12/18 07:50:28;;;;;;;3.22;2.00;;;;;;;12.99;30.50;97988.03;5044402;28;20362;-26
2023/12/18 07:52:54;;;;;;;5.53;2.10;;;;;;;12.73;30.33;97988.69;5035934;28;20522;-26
2023/12/18 07:55:19;;;;;;;2.55;1.27;;;;;;;12.83;30.37;97982.38;5035440;28;20024;-26
2023/12/18 07:57:45;;;;;;;1.88;1.10;;;;;;;12.77;30.59;97987.47;5043769;28;20024;-26
2023/12/18 08:00:11;;;;;;;2.60;1.20;;;;;;;12.88;30.89;97987.38;5040601;28;20103;-26
2023/12/18 08:02:36;;;;;;;2.45;1.20;;;;;;;12.92;30.81;97990.84;5038648;28;20032;-26
2023/12/18 08:05:02;;;;;;;3.33;1.10;;;;;;;12.97;30.10;97993.13;5035471;28;20116;-26
2023/12/18 08:07:27;;;;;;;3.83;1.17;;;;;;;13.04;30.17;97990.34;5042581;28;20024;-26
2023/12/18 08:09:53;;;;;;;1.90;1.27;;;;;;;12.95;31.01;97995.50;5037702;28;20509;-26
2023/12/18 08:12:19;;;;;;;3.72;1.23;;;;;;;13.00;30.41;97997.75;5040988;28;20022;-26
2023/12/18 08:14:44;;;;;;;1.95;1.00;;;;;;;12.96;30.56;98002.47;5042974;28;20368;-26
2023/12/18 08:17:12;;;;;;;2.75;0.98;;;;;;;13.10;30.94;98001.56;5035325;28;20051;-26
2023/12/18 08:19:38;;;;;;;2.05;1.05;;;;;;;13.10;31.08;97998.84;5035371;28;20028;-26
2023/12/18 08:22:03;;;;;;;1.08;0.70;;;;;;;13.04;30.84;98003.94;5036418;28;20025;-26
2023/12/18 08:24:29;;;;;;;2.08;1.00;;;;;;;12.91;31.46;98005.63;5035892;28;20500;-26
2023/12/18 08:26:54;;;;;;;1.60;0.77;;;;;;;13.05;31.48;98000.06;5042561;28;20474;-26
2023/12/18 08:29:20;;;;;;;2.08;1.00;;;;;;;13.01;31.34;98004.75;5037350;28;20458;-26
2023/12/18 08:31:45;;;;;;;1.10;0.73;;;;;;;13.00;31.55;97999.69;5047593;28;20390;-26
2023/12/18 08:34:11;;;;;;;1.73;0.95;;;;;;;13.20;31.28;98001.50;5035500;28;20021;-26
2023/12/18 08:36:36;;;;;;;1.20;0.75;;;;;;;12.92;32.24;98007.94;5034645;28;20040;-26
2023/12/18 08:39:03;;;;;;;1.33;0.80;;;;;;;13.12;31.51;97997.25;5035477;28;20115;-26
2023/12/18 08:41:28;;;;;;;1.98;0.68;;;;;;;13.19;32.05;98005.38;5042038;28;20028;-26
2023/12/18 08:43:54;;;;;;;1.42;0.70;;;;;;;13.25;31.42;98000.25;5042191;28;20410;-26
2023/12/18 08:46:19;;;;;;;1.00;0.47;;;;;;;13.34;31.56;97997.06;5035388;28;20025;-26
2023/12/18 08:48:45;;;;;;;1.08;0.60;;;;;;;13.36;31.93;98002.84;5035173;28;20493;-26
2023/12/18 08:51:10;;;;;;;0.90;0.60;;;;;;;13.37;32.18;97998.97;5035359;28;20022;-26
2023/12/18 08:53:36;;;;;;;0.77;0.50;;;;;;;13.34;32.62;98003.28;5042053;28;20025;-26
2023/12/18 08:56:01;;;;;;;1.00;0.50;;;;;;;13.56;32.48;98012.00;5039403;28;20025;-26
2023/12/18 08:58:26;;;;;;;1.65;0.70;;;;;;;14.46;31.05;98013.16;5037313;28;20025;-26
2023/12/18 09:00:56;;;;;;;2.05;0.80;;;;;;;18.72;24.63;98022.31;5034996;28;20099;-26
2023/12/18 09:03:22;;;;;;;1.33;0.80;;;;;;;21.19;21.36;98016.31;5034893;28;20014;-26
2023/12/18 09:05:47;;;;;;;1.92;0.73;;;;;;;23.19;18.77;98009.44;5036175;28;20032;-26
2023/12/18 09:08:13;;;;;;;0.73;0.50;;;;;;;24.42;17.98;98014.44;5048283;28;20041;-26
2023/12/18 09:10:39;;;;;;;1.33;0.50;;;;;;;24.55;17.65;98019.66;5041187;28;20067;-26
2023/12/18 09:13:05;;;;;;;0.80;0.63;;;;;;;24.20;17.90;98012.03;5041651;28;20033;-26
2023/12/18 09:15:30;;;;;;;2.28;1.00;;;;;;;24.98;16.62;98015.22;5034556;28;20031;-26
2023/12/18 09:17:56;;;;;;;4.05;1.88;;;;;;;26.17;15.60;98007.69;5034918;28;20398;-26
2023/12/18 09:20:21;;;;;;;0.90;0.65;;;;;;;26.51;15.82;98015.06;5033950;28;20051;-26
2023/12/18 09:22:48;;;;;;;2.05;0.90;;;;;;;26.56;15.76;98013.59;5041397;28;20078;-26
2023/12/18 09:25:14;;;;;;;1.50;0.80;;;;;;;27.68;14.74;98014.91;5035651;28;20025;-26
2023/12/18 09:27:39;;;;;;;1.98;0.90;;;;;;;27.91;14.68;98010.88;5018393;28;20498;-26
2023/12/18 09:30:05;;;;;;;1.80;1.00;;;;;;;27.36;14.75;98003.88;5035527;28;20026;-26
2023/12/18 09:32:31;;;;;;;0.90;0.77;;;;;;;27.69;14.60;98000.47;5040992;28;20454;-26
2023/12/18 09:34:56;;;;;;;1.80;0.90;;;;;;;27.61;14.56;97998.66;5034028;28;20025;-26
2023/12/18 09:37:22;;;;;;;3.10;0.98;;;;;;;26.82;15.21;97997.56;5041946;28;20032;-26
2023/12/18 09:39:47;;;;;;;1.30;0.75;;;;;;;26.15;16.28;98002.63;5041582;28;20029;-26
2023/12/18 09:42:13;;;;;;;1.65;1.00;;;;;;;20.98;21.06;97993.13;5034114;28;20031;-26
2023/12/18 09:44:40;;;;;;;1.20;0.70;;;;;;;18.74;24.14;97997.91;5033867;28;20374;-26
2023/12/18 09:47:07;;;;;;;2.83;1.20;;;;;;;17.53;25.21;97996.03;5034566;28;20368;-26
2023/12/18 09:49:33;;;;;;;1.75;0.75;;;;;;;16.77;26.77;98001.16;5034545;28;20520;-26
2023/12/18 09:52:06;;;;;;;1.42;0.70;;;;;;;16.31;27.70;98004.19;5039943;28;20025;-26
2023/12/18 09:54:34;;;;;;;1.92;0.93;;;;;;;16.09;27.98;98010.13;5040273;28;20095;-26
2023/12/18 09:57:02;;;;;;;1.45;0.85;;;;;;;15.85;29.35;98000.50;5038386;28;20048;-26
2023/12/18 09:59:28;;;;;;;1.88;0.80;;;;;;;15.72;29.41;98002.31;5037797;28;20022;-26
2023/12/18 10:01:54;;;;;;;2.13;1.08;;;;;;;15.43;30.14;98008.34;5047764;28;20368;-27
2023/12/18 10:04:20;;;;;;;2.15;1.02;;;;;;;15.36;30.19;97997.53;5042749;28;20021;-26
2023/12/18 10:06:46;;;;;;;2.35;1.77;;;;;;;15.29;30.34;98000.41;5046626;28;20033;-26
2023/12/18 10:09:15;;;;;;;2.60;1.15;;;;;;;15.29;30.07;97994.94;5044129;28;20413;-26
2023/12/18 10:11:44;;;;;;;2.65;1.00;;;;;;;14.94;30.70;97992.88;5038569;28;20049;-26
2023/12/18 10:14:13;;;;;;;1.27;1.05;;;;;;;14.93;31.09;97992.09;5037491;28;20056;-26
2023/12/18 10:16:39;;;;;;;3.33;1.13;;;;;;;14.97;30.66;97981.06;5044974;28;20355;-26
2023/12/18 10:19:05;;;;;;;1.70;0.90;;;;;;;14.89;30.61;97976.94;5045030;28;20035;-27
2023/12/18 10:21:31;;;;;;;2.97;1.38;;;;;;;14.81;30.92;97984.50;5037905;28;20518;-26
2023/12/18 10:23:57;;;;;;;2.33;1.35;;;;;;;14.71;31.20;97978.00;5038136;28;20018;-26
2023/12/18 10:26:23;;;;;;;3.83;0.95;;;;;;;14.64;31.20;97982.81;5037787;28;20052;-26
2023/12/18 10:28:52;;;;;;;1.27;0.93;;;;;;;14.60;31.61;97984.84;5043851;28;20044;-26
2023/12/18 10:31:19;;;;;;;1.80;1.00;;;;;;;14.65;30.96;97979.69;5047406;28;20025;-26
2023/12/18 10:33:45;;;;;;;2.35;1.00;;;;;;;14.64;31.36;97978.13;5042418;28;20490;-26
2023/12/18 10:36:10;;;;;;;1.30;0.80;;;;;;;14.34;32.04;97978.22;5037260;28;20073;-26
2023/12/18 10:38:40;;;;;;;2.47;1.10;;;;;;;14.49;31.58;97974.09;5037003;28;20057;-26
2023/12/18 10:41:08;;;;;;;0.98;0.70;;;;;;;14.53;31.15;97977.53;5037240;28;20441;-26
2023/12/18 10:43:35;;;;;;;2.42;1.05;;;;;;;14.59;31.01;97967.69;5037495;28;20021;-26
2023/12/18 10:46:02;;;;;;;1.70;0.68;;;;;;;14.66;30.76;97962.13;5044467;28;20098;-26
2023/12/18 10:48:28;;;;;;;1.65;0.80;;;;;;;14.64;31.23;97964.47;5038937;28;20076;-26
2023/12/18 10:50:56;;;;;;;2.45;0.80;;;;;;;14.58;30.95;97959.94;5043883;28;20065;-26
2023/12/18 10:53:23;;;;;;;1.33;0.82;;;;;;;14.52;31.57;97956.88;5037586;28;20033;-26
2023/12/18 10:55:50;;;;;;;1.10;0.60;;;;;;;14.53;31.20;97958.44;5051377;28;20425;-26
2023/12/18 10:58:19;;;;;;;2.65;0.80;;;;;;;14.50;31.49;97956.53;5043037;28;20025;-26
2023/12/18 11:00:45;;;;;;;2.33;0.90;;;;;;;14.41;31.05;97958.25;5038327;28;20025;-26
2023/12/18 11:03:13;;;;;;;2.60;1.00;;;;;;;14.49;31.06;97954.97;5036580;28;20030;-26
2023/12/18 11:05:40;;;;;;;1.08;0.68;;;;;;;14.42;31.52;97940.69;5037347;28;20032;-26
2023/12/18 11:08:06;;;;;;;1.50;0.70;;;;;;;14.51;31.13;97947.16;5026116;28;20033;-26
2023/12/18 11:10:32;;;;;;;1.75;0.90;;;;;;;14.58;31.54;97949.78;5037121;28;20020;-26
2023/12/18 11:13:23;;;;;;;1.58;1.00;;;;;;;14.44;31.74;97952.72;5051742;28;20516;-26
2023/12/18 11:16:12;;;;;;;3.35;1.20;;;;;;;14.45;31.55;97940.63;5035132;28;20116;-26
2023/12/18 11:19:11;;;;;;;1.88;1.23;;;;;;;14.56;31.22;97941.22;5036363;28;20025;-26
2023/12/18 11:21:36;;;;;;;2.08;1.10;;;;;;;14.54;31.63;97937.38;5036905;28;20056;-26
2023/12/18 11:24:03;;;;;;;1.50;0.80;;;;;;;14.53;31.76;97942.06;5036698;28;20056;-26
2023/12/18 11:26:30;;;;;;;1.85;0.80;;;;;;;14.39;31.59;97936.78;5043169;28;20029;-26
2023/12/18 11:29:03;;;;;;;1.25;0.80;;;;;;;14.56;32.07;97941.22;5043319;28;20033;-26